Time;durP1;ratioP1;P1;durP2;ratioP2;P2;SDS_P1;SDS_P2;PMS_P1;PMS_P2;Temp;Humidity;BMP_temperature;BMP_pressure;BME280_temperature;BME280_humidity;BME280_pressure;Samples;Min_cycle;Max_cycle;Signal;HPM_P1;HPM_P2
2022/03/14 00:07:23;;;;;;;2.47;1.90;;;;;;;10.64;61.58;101549.13;4945976;29;20041;-81
2022/03/14 00:10:07;;;;;;;;;;;;;;;;;;;;;
2022/03/14 00:12:58;;;;;;;3.03;1.60;;;;;;;10.55;63.84;101548.00;4990824;28;20026;-81
2022/03/14 00:15:40;;;;;;;3.38;2.00;;;;;;;10.48;63.51;101538.97;5021288;28;20041;-82
2022/03/14 00:18:31;;;;;;;2.78;1.95;;;;;;;10.44;63.98;101542.75;4990432;28;20034;-81
2022/03/14 00:21:20;;;;;;;2.75;1.70;;;;;;;10.69;64.34;101598.09;4990210;28;20038;-81
2022/03/14 00:23:57;;;;;;;2.60;1.92;;;;;;;10.53;65.53;101577.56;5008766;28;20038;-84
2022/03/14 00:26:31;;;;;;;2.47;1.73;;;;;;;10.62;65.29;101598.53;5013149;28;20459;-81
2022/03/14 00:29:15;;;;;;;3.17;2.17;;;;;;;10.52;65.24;101596.66;5027510;28;20021;-81
2022/03/14 00:32:16;;;;;;;2.80;1.88;;;;;;;10.40;65.67;101577.59;5010103;28;20203;-81
2022/03/14 00:37:57;;;;;;;3.53;2.13;;;;;;;10.45;65.29;101591.06;5006461;28;20034;-81
2022/03/14 00:41:06;;;;;;;3.60;2.03;;;;;;;10.45;65.21;101601.44;4970698;28;20121;-81
2022/03/14 00:44:06;;;;;;;3.47;2.25;;;;;;;10.27;65.71;101576.78;4971715;28;20034;-81
2022/03/14 00:47:14;;;;;;;3.47;2.28;;;;;;;10.62;65.09;101629.66;4986515;28;20493;-81
2022/03/14 00:49:44;;;;;;;2.75;2.08;;;;;;;10.30;65.18;101581.75;4969908;28;20034;-81
2022/03/14 00:52:36;;;;;;;3.08;2.20;;;;;;;10.46;65.83;101612.66;4965108;28;20109;-81
2022/03/14 00:55:44;;;;;;;3.13;2.20;;;;;;;10.37;64.95;101593.34;4988943;28;20030;-81
2022/03/14 00:58:12;;;;;;;;;;;;;;;10.70;64.28;101646.44;4976386;28;20042;-81
2022/03/14 01:01:45;;;;;;;3.25;2.20;;;;;;;10.45;65.09;101611.81;4986037;28;19922;-81
2022/03/14 01:04:35;;;;;;;2.80;1.98;;;;;;;10.61;64.77;101648.75;4985910;28;20127;-81
2022/03/14 01:07:21;;;;;;;2.83;2.10;;;;;;;10.29;65.34;101595.66;4969856;28;20026;-81
2022/03/14 01:09:54;;;;;;;3.72;2.40;;;;;;;10.27;65.32;101605.31;4970598;28;20038;-81
2022/03/14 01:12:41;;;;;;;2.95;2.30;;;;;;;10.26;65.33;101614.00;4998372;28;20133;-81
2022/03/14 01:15:10;;;;;;;2.75;2.00;;;;;;;10.38;65.07;101633.94;4968372;28;20069;-81
2022/03/14 01:17:59;;;;;;;3.20;2.30;;;;;;;10.19;65.99;101610.94;4966989;28;20455;-81
2022/03/14 01:21:01;;;;;;;2.80;1.95;;;;;;;10.18;64.87;101614.47;4969533;28;20034;-81
2022/03/14 01:23:55;;;;;;;3.40;2.30;;;;;;;10.18;65.82;101621.44;4970748;28;20039;-81
2022/03/14 01:26:41;;;;;;;3.42;2.30;;;;;;;10.29;65.53;101643.16;4955205;28;20102;-81
2022/03/14 01:29:25;;;;;;;3.40;2.42;;;;;;;10.40;65.85;101655.38;4967739;28;20039;-81
2022/03/14 01:32:13;;;;;;;3.03;2.22;;;;;;;10.20;65.80;101638.53;4955814;28;20031;-81
2022/03/14 01:34:59;;;;;;;3.88;2.47;;;;;;;10.11;65.48;101624.44;4967061;28;20047;-81
2022/03/14 01:37:52;;;;;;;3.53;2.50;;;;;;;10.16;66.14;101642.28;5003590;28;20035;-81
2022/03/14 01:40:33;;;;;;;3.08;2.40;;;;;;;10.33;65.96;101680.91;5004560;28;20047;-81
2022/03/14 01:43:08;;;;;;;4.00;2.40;;;;;;;10.11;65.33;101640.00;4985869;28;20051;-81
2022/03/14 01:45:54;;;;;;;4.10;2.60;;;;;;;10.10;65.63;101633.16;4984622;28;20037;-81
2022/03/14 01:49:06;;;;;;;3.55;2.40;;;;;;;10.07;65.81;101622.97;4992460;28;20113;-81
2022/03/14 01:51:24;;;;;;;3.60;2.50;;;;;;;10.07;65.47;101638.53;4977123;28;20230;-81
2022/03/14 01:53:53;;;;;;;4.32;2.72;;;;;;;10.06;66.13;101642.06;4973817;28;20066;-81
2022/03/14 01:56:25;;;;;;;4.65;2.83;;;;;;;10.17;66.23;101669.03;4984338;28;20038;-81
2022/03/14 01:58:54;;;;;;;4.20;2.97;;;;;;;10.03;66.11;101651.78;4992906;28;20129;-81
2022/03/14 02:01:32;;;;;;;4.07;2.78;;;;;;;9.96;66.22;101641.00;4986580;28;20062;-79
2022/03/14 02:04:13;;;;;;;3.75;2.65;;;;;;;9.93;67.01;101630.84;5005007;28;20491;-79
2022/03/14 02:06:55;;;;;;;4.10;2.70;;;;;;;10.03;67.29;101652.59;4985386;28;20058;-80
2022/03/14 02:09:34;;;;;;;4.10;3.03;;;;;;;9.98;66.68;101662.47;4974322;28;20129;-82
2022/03/14 02:12:13;;;;;;;4.45;2.88;;;;;;;10.22;66.68;101698.09;4992492;28;20042;-82
2022/03/14 02:14:56;;;;;;;;;;;;;;;;;;;;;
2022/03/14 02:17:49;;;;;;;;;;;;;;;;;;;;;
2022/03/14 02:20:49;;;;;;;5.25;3.40;;;;;;;9.96;67.16;101672.09;4973114;28;20031;-82
2022/03/14 02:24:05;;;;;;;;;;;;;;;;;;;;;
2022/03/14 02:27:07;;;;;;;;;;;;;;;;;;;;;
2022/03/14 02:29:59;;;;;;;5.32;3.13;;;;;;;9.90;66.51;101662.13;4972266;28;20356;-82
2022/03/14 02:32:38;;;;;;;5.00;3.20;;;;;;;10.12;67.26;101708.22;4974090;28;20093;-82
2022/03/14 02:35:50;;;;;;;5.28;3.38;;;;;;;9.85;66.82;101664.19;5003359;28;20123;-81
2022/03/14 02:38:45;;;;;;;5.47;3.55;;;;;;;9.73;67.68;101657.22;4994151;28;20054;-82
2022/03/14 02:41:57;;;;;;;;;;;;;;;;;;;;;
2022/03/14 02:44:41;;;;;;;5.18;3.40;;;;;;;9.75;67.66;101668.31;5010797;28;20390;-82
2022/03/14 02:50:44;;;;;;;5.78;3.45;;;;;;;10.05;67.32;101722.50;4984886;28;20028;-81
2022/03/14 02:56:46;;;;;;;4.85;3.33;;;;;;;9.75;67.90;101678.69;4986355;28;20026;-82
2022/03/14 02:59:51;;;;;;;5.90;3.60;;;;;;;9.90;68.23;101713.97;5030950;28;20037;-82
2022/03/14 03:02:29;;;;;;;5.18;3.55;;;;;;;9.79;67.99;101699.09;5014478;28;20128;-82
2022/03/14 03:05:25;;;;;;;5.82;3.70;;;;;;;9.70;68.52;101681.56;5000905;28;20129;-83
2022/03/14 03:08:22;;;;;;;5.90;3.50;;;;;;;10.02;68.47;101733.88;5016683;28;20029;-83
2022/03/14 03:11:11;;;;;;;;;;;;;;;;;;;;;
2022/03/14 03:13:51;;;;;;;6.32;3.97;;;;;;;9.67;68.66;101699.06;5008923;28;20017;-81
2022/03/14 03:16:47;;;;;;;5.75;3.90;;;;;;;9.60;69.21;101695.19;5008093;28;20473;-82
2022/03/14 03:19:29;;;;;;;5.25;3.70;;;;;;;9.61;70.00;101702.03;5008647;28;20026;-81
2022/03/14 03:22:00;;;;;;;5.60;3.70;;;;;;;9.58;69.38;101703.91;4991807;28;20053;-82
2022/03/14 03:24:42;;;;;;;6.32;4.28;;;;;;;9.85;68.79;101742.75;5008206;28;20037;-81
2022/03/14 03:33:28;;;;;;;4.88;3.70;;;;;;;9.61;69.74;101727.94;5003900;28;20096;-82
2022/03/14 03:36:09;;;;;;;5.25;3.75;;;;;;;9.66;69.35;101741.44;5010070;28;20361;-81
2022/03/14 03:38:46;;;;;;;6.15;4.45;;;;;;;9.65;69.35;101744.97;4993300;28;20090;-81
2022/03/14 03:41:43;;;;;;;6.05;3.90;;;;;;;9.57;69.57;101737.66;4993278;28;20124;-81
2022/03/14 03:44:14;;;;;;;6.10;4.20;;;;;;;9.50;69.48;101736.38;5011146;28;20506;-81
2022/03/14 03:46:55;;;;;;;5.20;3.75;;;;;;;9.70;69.49;101789.53;5012287;28;20104;-81
2022/03/14 03:49:40;;;;;;;5.47;3.85;;;;;;;9.60;69.97;101773.72;5016409;28;20132;-81
2022/03/14 03:52:22;;;;;;;5.78;4.07;;;;;;;9.44;70.04;101768.66;4993060;28;20026;-81
2022/03/14 03:55:04;;;;;;;5.30;3.78;;;;;;;9.51;70.02;101790.66;5007770;28;20294;-80
2022/03/14 03:57:58;;;;;;;5.63;3.97;;;;;;;9.36;70.73;101776.09;5008401;28;20100;-81
2022/03/14 04:00:40;;;;;;;5.55;4.13;;;;;;;9.25;71.60;101781.09;5011162;28;20045;-81
2022/03/14 04:03:24;;;;;;;5.32;3.90;;;;;;;9.29;70.58;101782.56;4998438;28;20348;-81
2022/03/14 04:06:08;;;;;;;5.72;4.10;;;;;;;9.27;71.03;101792.16;5010699;28;20038;-81
2022/03/14 04:08:39;;;;;;;5.68;3.85;;;;;;;9.20;70.99;101796.06;5009780;28;20064;-81
2022/03/14 04:11:21;;;;;;;5.18;3.95;;;;;;;9.24;70.80;101807.91;4990620;28;20038;-81
2022/03/14 04:13:51;;;;;;;6.93;4.30;;;;;;;9.10;71.72;101805.28;5010405;28;21324;-81
2022/03/14 04:19:16;;;;;;;6.28;4.40;;;;;;;9.08;72.24;101822.66;5025048;28;20481;-82
2022/03/14 04:21:58;;;;;;;;;;;;;;;;;;;;;
2022/03/14 04:24:38;;;;;;;5.93;4.65;;;;;;;9.03;73.16;101826.34;5000973;23;20406;-80
2022/03/14 04:27:29;;;;;;;6.65;5.38;;;;;;;8.98;73.54;101833.56;4990875;28;20034;-80
2022/03/14 04:30:08;;;;;;;7.82;5.30;;;;;;;8.89;72.90;101833.25;4973507;28;20038;-80
2022/03/14 04:33:03;;;;;;;7.88;5.57;;;;;;;9.13;74.06;101888.78;4989239;28;20026;-80
2022/03/14 04:36:19;;;;;;;;;;;;;;;;;;;;;
2022/03/14 04:39:04;;;;;;;6.97;5.93;;;;;;;8.78;75.05;101862.34;4972337;28;20467;-80
2022/03/14 04:44:49;;;;;;;8.73;6.88;;;;;;;8.86;76.05;101891.19;4959725;28;20558;-80
2022/03/14 04:47:26;;;;;;;8.68;7.50;;;;;;;8.60;75.75;101864.25;4931786;29;20030;-81
2022/03/14 04:49:52;;;;;;;8.82;7.93;;;;;;;8.72;75.93;101889.41;4933929;29;20035;-81
2022/03/14 04:52:21;;;;;;;9.65;8.63;;;;;;;8.56;76.11;101877.41;4933575;28;20063;-81
2022/03/14 04:54:53;;;;;;;10.02;9.02;;;;;;;8.70;76.16;101891.22;4943164;28;20055;-81
2022/03/14 04:57:21;;;;;;;10.20;9.20;;;;;;;8.64;76.36;101901.09;4928736;29;20071;-81
2022/03/14 04:59:50;;;;;;;9.95;8.95;;;;;;;8.65;76.06;101903.56;4943800;28;20031;-80
2022/03/14 05:02:27;;;;;;;;;;;;;;;8.96;74.62;101944.09;4951944;28;20154;-81
2022/03/14 05:05:17;;;;;;;10.52;9.43;;;;;;;8.82;75.33;101930.25;4937250;28;19951;-80
2022/03/14 05:07:43;;;;;;;10.75;9.65;;;;;;;8.58;76.51;101897.09;4936121;28;20106;-80
2022/03/14 05:10:10;;;;;;;11.07;9.50;;;;;;;8.63;76.74;101909.78;4935212;29;20031;-80
2022/03/14 05:12:41;;;;;;;11.57;10.25;;;;;;;8.50;76.95;101905.28;4951860;28;20074;-80
2022/03/14 05:22:13;;;;;;;13.82;11.25;;;;;;;8.68;76.37;101954.31;4911692;29;20047;-83
2022/03/14 05:25:02;;;;;;;12.27;11.07;;;;;;;8.45;76.63;101922.78;4912658;29;20050;-85
2022/03/14 05:27:31;;;;;;;13.20;10.95;;;;;;;8.57;76.43;101930.78;4919691;29;20044;-82
2022/03/14 05:29:56;;;;;;;12.27;10.80;;;;;;;8.47;76.90;101931.28;4920819;29;20118;-83
2022/03/14 05:32:25;;;;;;;12.55;10.40;;;;;;;8.43;76.94;101939.28;4935593;29;20111;-82
2022/03/14 05:34:50;;;;;;;11.98;10.75;;;;;;;8.67;76.64;101988.84;4929765;29;20584;-83
2022/03/14 05:37:17;;;;;;;12.85;10.85;;;;;;;8.49;76.51;101964.84;4902764;29;20136;-83
2022/03/14 05:39:42;;;;;;;12.63;10.70;;;;;;;8.46;77.98;101978.75;4910749;29;20411;-83
2022/03/14 05:42:08;;;;;;;12.90;11.30;;;;;;;8.37;77.57;101970.66;4899291;29;20496;-83
2022/03/14 05:44:42;;;;;;;13.00;11.63;;;;;;;8.43;77.96;101991.88;4900783;29;20395;-83
2022/03/14 05:47:08;;;;;;;12.75;11.30;;;;;;;8.29;77.45;101967.63;4881787;29;20033;-83
2022/03/14 05:49:36;;;;;;;12.82;11.23;;;;;;;8.41;77.32;101983.34;4899386;29;20047;-82
2022/03/14 05:52:08;;;;;;;13.15;11.75;;;;;;;8.22;77.71;101967.97;4895804;29;20183;-81
2022/03/14 05:54:45;;;;;;;12.80;11.25;;;;;;;8.29;77.26;101983.97;4897731;29;20028;-83
2022/03/14 05:57:19;;;;;;;13.70;11.95;;;;;;;8.26;78.10;101984.16;4954068;28;20575;-82
2022/03/14 05:59:48;;;;;;;12.18;10.85;;;;;;;8.31;77.03;101987.28;4948808;28;20039;-83
2022/03/14 06:02:21;;;;;;;13.70;11.48;;;;;;;8.34;77.35;102002.66;4940392;28;20054;-82
2022/03/14 06:04:54;;;;;;;12.80;10.90;;;;;;;8.27;77.50;101987.56;4945082;28;20118;-83
2022/03/14 06:07:21;;;;;;;13.70;10.90;;;;;;;8.24;77.34;101999.72;4953902;28;20023;-84
2022/03/14 06:13:08;;;;;;;13.52;10.73;;;;;;;8.30;77.02;102019.22;4953557;28;20388;-79
2022/03/14 06:19:37;;;;;;;12.93;11.52;;;;;;;8.44;77.34;102055.56;4915196;29;20064;-80
2022/03/14 06:22:22;;;;;;;13.55;11.80;;;;;;;8.42;77.26;102047.03;4913147;29;20087;-83
2022/03/14 06:24:48;;;;;;;12.95;11.63;;;;;;;8.49;77.62;102069.09;4915249;28;20108;-84
2022/03/14 06:27:15;;;;;;;13.30;11.90;;;;;;;8.50;77.75;102075.94;4917823;29;20136;-85
2022/03/14 06:29:42;;;;;;;14.23;12.27;;;;;;;8.45;78.06;102066.75;4937464;29;20074;-84
2022/03/14 06:32:08;;;;;;;14.82;11.98;;;;;;;8.49;78.08;102084.63;4949970;29;20062;-84
2022/03/14 06:34:33;;;;;;;14.65;13.15;;;;;;;8.46;78.61;102084.75;4937325;29;20150;-84
2022/03/14 06:37:00;;;;;;;14.40;12.77;;;;;;;8.47;78.08;102086.41;4913328;29;20501;-84
2022/03/14 06:39:53;;;;;;;15.23;12.48;;;;;;;8.46;78.00;102089.94;4890716;29;20136;-81
2022/03/14 07:00:42;;;;;;;15.60;13.73;;;;;;;8.18;78.66;102092.25;5204240;23;20065;-86
2022/03/14 07:03:17;;;;;;;;;;;;;;;;;;;;;
2022/03/14 07:05:51;;;;;;;16.40;14.70;;;;;;;8.45;79.28;102134.81;5010561;28;20374;-84
2022/03/14 07:09:09;;;;;;;;;;;;;;;8.59;77.42;102130.66;5010310;28;20037;-86
2022/03/14 07:11:45;;;;;;;18.05;16.25;;;;;;;8.20;78.51;102099.03;5021848;28;20012;-86
2022/03/14 07:14:11;;;;;;;18.10;16.08;;;;;;;8.21;79.00;102111.03;5012182;28;20061;-83
2022/03/14 07:16:36;;;;;;;20.40;17.05;;;;;;;8.28;78.82;102116.72;5048798;28;20380;-84
2022/03/14 07:19:06;;;;;;;19.73;17.63;;;;;;;8.16;78.96;102099.25;5046108;28;20028;-80
2022/03/14 07:21:34;;;;;;;19.65;17.63;;;;;;;8.24;78.82;102099.69;5031948;28;20524;-80
2022/03/14 07:24:03;;;;;;;20.30;18.20;;;;;;;8.21;79.30;102115.34;5050382;28;20108;-80
2022/03/14 07:26:28;;;;;;;18.23;16.33;;;;;;;8.24;79.23;102115.19;5031535;28;20056;-80
2022/03/14 07:47:10;;;;;;;;;;;;;;;;;;;;;
2022/03/14 07:49:35;;;;;;;22.45;18.23;;;;;;;8.35;79.14;102127.56;4997742;28;19909;-83
2022/03/14 07:52:10;;;;;;;21.13;19.00;;;;;;;8.34;79.43;102136.25;4998911;28;20042;-84
2022/03/14 07:54:45;;;;;;;21.95;19.50;;;;;;;8.52;79.43;102167.19;4992691;28;20384;-86
2022/03/14 07:58:12;;;;;;;;;;;;;;;;;;;;;
2022/03/14 08:00:59;;;;;;;21.85;19.42;;;;;;;8.70;78.36;102185.25;4929039;29;20049;-81
2022/03/14 08:03:25;;;;;;;23.52;21.02;;;;;;;8.61;78.99;102167.63;4928585;29;20032;-81
2022/03/14 08:09:54;;;;;;;22.63;20.25;;;;;;;8.82;79.07;102199.28;4931203;29;20123;-85
2022/03/14 08:13:02;;;;;;;22.15;19.83;;;;;;;8.86;78.61;102211.16;4932955;29;20100;-85
2022/03/14 08:23:46;;;;;;;23.95;20.17;;;;;;;8.72;78.90;102194.63;4891987;29;20499;-84
2022/03/14 08:40:09;;;;;;;23.58;21.05;;;;;;;9.00;78.31;102265.59;4883277;29;20043;-81
2022/03/14 08:52:42;;;;;;;24.15;21.40;;;;;;;8.82;78.13;102264.81;5001692;28;20103;-83
2022/03/14 08:55:25;;;;;;;26.58;21.85;;;;;;;8.68;77.73;102239.66;5004817;28;20496;-80
2022/03/14 08:58:14;;;;;;;25.60;21.25;;;;;;;8.71;78.07;102243.81;4991257;28;20044;-80
2022/03/14 09:00:39;;;;;;;24.48;21.83;;;;;;;8.77;77.89;102257.31;5005314;28;20053;-82
2022/03/14 09:03:47;;;;;;;24.55;21.42;;;;;;;9.08;77.33;102309.22;4989856;28;20061;-83
2022/03/14 09:06:58;;;;;;;25.15;21.60;;;;;;;9.06;77.55;102301.53;4978516;28;20488;-84
2022/03/14 09:09:45;;;;;;;24.88;21.60;;;;;;;8.91;77.45;102274.69;4987745;28;20708;-81
2022/03/14 09:12:14;;;;;;;27.25;21.77;;;;;;;8.97;77.84;102282.13;4974490;28;20134;-83
2022/03/14 09:14:52;;;;;;;26.05;22.02;;;;;;;9.11;77.29;102301.28;4972008;28;20221;-83
2022/03/14 09:17:18;;;;;;;27.40;22.87;;;;;;;9.17;77.61;102313.91;4970099;28;20023;-82
2022/03/14 09:19:43;;;;;;;26.15;21.90;;;;;;;9.13;77.48;102312.41;4970851;28;20693;-82
2022/03/14 09:22:35;;;;;;;24.52;21.80;;;;;;;8.94;77.09;102279.69;4987229;28;20066;-85
2022/03/14 09:25:27;;;;;;;25.98;22.17;;;;;;;8.91;78.07;102292.81;4970220;28;20094;-84
2022/03/14 09:28:07;;;;;;;25.17;22.48;;;;;;;9.15;77.52;102323.50;5005930;28;20041;-84
2022/03/14 09:30:41;;;;;;;25.67;22.73;;;;;;;9.16;77.67;102332.94;5006329;28;20221;-84
2022/03/14 09:33:09;;;;;;;27.58;24.67;;;;;;;9.09;77.02;102316.06;4984077;28;20027;-82
2022/03/14 09:39:13;;;;;;;27.02;24.13;;;;;;;9.07;77.43;102323.09;4928736;29;20051;-84
2022/03/14 09:42:31;;;;;;;25.63;22.92;;;;;;;9.40;77.11;102370.50;4960415;28;20030;-80
2022/03/14 09:45:37;;;;;;;;;;;;;;;9.52;76.29;102374.25;4949371;28;20150;-80
2022/03/14 09:48:36;;;;;;;25.75;22.45;;;;;;;9.23;76.60;102339.47;4939204;29;20172;-83
2022/03/14 09:51:33;;;;;;;26.42;22.25;;;;;;;9.13;76.59;102340.88;4951906;29;20046;-83
2022/03/14 09:54:49;;;;;;;24.90;22.05;;;;;;;9.09;77.19;102331.59;4932382;29;20059;-82
2022/03/14 09:57:52;;;;;;;;;;;;;;;;;;;;;
2022/03/14 10:00:18;;;;;;;25.48;22.40;;;;;;;9.09;76.38;102341.94;4950746;29;20587;-80
2022/03/14 10:03:51;;;;;;;25.63;22.55;;;;;;;9.20;76.29;102345.66;4935902;29;20053;-86
2022/03/14 10:06:41;;;;;;;25.75;23.02;;;;;;;9.09;76.54;102341.94;4847131;29;20049;-85
2022/03/14 10:09:32;;;;;;;26.05;22.40;;;;;;;9.23;76.39;102360.19;4868023;29;20041;-81
2022/03/14 10:12:39;;;;;;;25.23;22.65;;;;;;;9.14;76.51;102350.31;4857529;29;20045;-81
2022/03/14 10:15:40;;;;;;;25.38;22.67;;;;;;;9.15;76.59;102355.41;4800951;29;20046;-81
2022/03/14 10:18:59;;;;;;;24.25;21.73;;;;;;;9.18;76.68;102362.19;4802123;29;20058;-80
2022/03/14 10:24:17;;;;;;;24.30;21.73;;;;;;;9.23;77.23;102365.38;5157317;23;20490;-82
2022/03/14 10:26:44;;;;;;;23.85;21.35;;;;;;;9.46;76.82;102387.47;4986238;28;20030;-82
2022/03/14 10:36:47;;;;;;;21.73;19.45;;;;;;;9.92;75.65;102382.47;4914293;29;20036;-83
2022/03/14 10:39:13;;;;;;;23.70;19.63;;;;;;;10.24;75.52;102422.25;4947543;29;20059;-82
2022/03/14 10:41:41;;;;;;;22.55;20.15;;;;;;;10.20;74.33;102412.91;4952122;28;20097;-82
2022/03/14 10:44:07;;;;;;;21.77;18.77;;;;;;;10.02;74.41;102381.88;4969456;28;20073;-83
2022/03/14 10:47:23;;;;;;;22.83;19.45;;;;;;;10.32;74.17;102430.41;4953784;28;20038;-83
2022/03/14 10:49:49;;;;;;;22.98;19.20;;;;;;;9.97;73.78;102381.28;4969184;28;20043;-81
2022/03/14 10:52:34;;;;;;;21.95;18.85;;;;;;;10.23;73.50;102425.72;4951564;28;20475;-83
2022/03/14 10:55:17;;;;;;;24.13;18.13;;;;;;;10.28;73.29;102434.13;4927902;29;20039;-83
2022/03/14 10:57:47;;;;;;;21.23;18.30;;;;;;;9.98;72.18;102385.59;4936784;28;20070;-82
2022/03/14 11:00:13;;;;;;;25.00;18.50;;;;;;;10.33;72.71;102438.13;4953489;28;20050;-80
2022/03/14 11:14:42;;;;;;;19.08;15.77;;;;;;;10.60;71.56;102420.19;5012490;23;20053;-80
2022/03/14 11:17:35;;;;;;;17.63;14.73;;;;;;;10.55;71.24;102422.22;5009484;28;20030;-80
2022/03/14 11:42:22;;;;;;;18.00;14.65;;;;;;;11.21;71.23;102459.16;5051179;28;20029;-82
2022/03/14 11:59:13;;;;;;;22.40;17.05;;;;;;;11.72;69.30;102480.41;5046928;28;20592;-85
2022/03/14 12:06:14;;;;;;;18.70;16.52;;;;;;;11.77;68.06;102465.38;5024477;28;20130;-80
2022/03/14 12:09:00;;;;;;;20.30;17.83;;;;;;;11.83;67.59;102465.03;4941236;29;20058;-80
2022/03/14 12:12:12;;;;;;;20.63;17.75;;;;;;;11.78;67.68;102467.84;4941315;29;20095;-80
2022/03/14 12:15:11;;;;;;;20.35;16.60;;;;;;;11.59;67.65;102426.56;4937427;29;20027;-80
2022/03/14 12:17:48;;;;;;;21.52;16.65;;;;;;;11.91;66.56;102471.41;4932186;29;20035;-80
2022/03/14 12:20:31;;;;;;;16.88;15.05;;;;;;;11.67;65.77;102432.13;4931291;29;20051;-80
2022/03/14 12:23:27;;;;;;;17.55;15.70;;;;;;;11.74;66.73;102444.75;4934882;29;20039;-80
2022/03/14 12:26:30;;;;;;;18.85;15.98;;;;;;;11.65;65.51;102436.59;4947239;28;20531;-80
2022/03/14 12:30:15;;;;;;;19.80;16.35;;;;;;;11.70;64.87;102434.53;4933814;28;20047;-80
2022/03/14 12:33:02;;;;;;;18.02;15.15;;;;;;;11.82;64.90;102437.34;4876831;29;20469;-81
2022/03/14 12:39:25;;;;;;;20.23;17.40;;;;;;;12.30;64.31;102489.88;4871631;29;20112;-81
2022/03/14 12:45:47;;;;;;;21.23;18.00;;;;;;;12.48;63.80;102478.31;4915060;29;20050;-80
2022/03/14 12:53:05;;;;;;;19.50;15.52;;;;;;;12.77;63.53;102479.88;5049279;28;20035;-84
2022/03/14 12:55:57;;;;;;;14.27;10.05;;;;;;;12.47;60.47;102440.19;5036857;28;20119;-82
2022/03/14 13:07:37;;;;;;;13.65;9.75;;;;;;;12.43;60.31;102486.38;5017991;28;20340;-76
2022/03/14 13:10:03;;;;;;;13.25;9.18;;;;;;;12.50;60.57;102497.25;5006775;28;20041;-76
2022/03/14 13:12:32;;;;;;;13.00;9.00;;;;;;;12.48;61.04;102505.16;5024667;28;20032;-76
2022/03/14 13:15:03;;;;;;;;;;;;;;;12.68;62.73;102506.50;5046864;28;20031;-76
2022/03/14 13:17:29;;;;;;;15.10;9.60;;;;;;;12.79;60.99;102507.56;5034373;28;20403;-76
2022/03/14 13:19:54;;;;;;;15.45;9.20;;;;;;;12.78;60.79;102511.94;5027230;28;20037;-76
2022/03/14 13:22:24;;;;;;;13.10;8.07;;;;;;;12.67;60.13;102514.41;5031249;28;20025;-78
2022/03/14 13:24:50;;;;;;;12.75;7.30;;;;;;;12.65;61.20;102517.09;5030670;28;20469;-77
2022/03/14 13:27:25;;;;;;;15.73;7.32;;;;;;;12.51;61.73;102509.34;5030854;28;20034;-77
2022/03/14 13:29:52;;;;;;;12.57;6.40;;;;;;;12.50;60.84;102507.66;5021498;28;20079;-77
2022/03/14 13:32:21;;;;;;;15.25;7.07;;;;;;;12.55;61.64;102510.81;5006758;28;20385;-76
2022/03/14 13:35:05;;;;;;;;;;;;;;;12.69;62.61;102517.75;5009702;28;20021;-76
2022/03/14 13:37:31;;;;;;;11.73;6.80;;;;;;;12.51;61.40;102509.34;5015995;28;19921;-77
2022/03/14 13:39:56;;;;;;;10.93;7.18;;;;;;;12.45;62.09;102515.78;5020025;28;20052;-76
2022/03/14 13:42:22;;;;;;;12.25;7.55;;;;;;;12.43;62.95;102524.59;5009765;28;20029;-76
2022/03/14 13:44:49;;;;;;;10.38;6.70;;;;;;;12.30;62.36;102526.28;5017631;28;20399;-76
2022/03/14 13:47:21;;;;;;;6.78;4.80;;;;;;;12.14;61.62;102527.22;5025374;28;20045;-76
2022/03/14 13:49:59;;;;;;;7.90;4.75;;;;;;;12.18;62.60;102536.53;5023559;28;20030;-78
2022/03/14 13:52:25;;;;;;;6.23;4.20;;;;;;;12.15;61.76;102539.28;5030275;28;20021;-75
2022/03/14 13:54:52;;;;;;;6.03;3.70;;;;;;;12.15;62.28;102539.28;5030229;28;20445;-77
2022/03/14 13:57:21;;;;;;;6.28;3.80;;;;;;;12.08;62.34;102535.41;5029938;28;20051;-77
2022/03/14 13:59:48;;;;;;;;;;;;;;;12.27;62.33;102547.28;5022954;28;20121;-76
2022/03/14 14:02:16;;;;;;;7.75;4.95;;;;;;;12.02;62.37;102547.94;5027810;28;19933;-76
2022/03/14 14:04:45;;;;;;;6.50;4.50;;;;;;;11.93;61.88;102551.94;5029590;28;20025;-76
2022/03/14 14:07:26;;;;;;;7.10;4.70;;;;;;;11.92;63.05;102538.06;4992504;28;20456;-76
2022/03/14 14:09:53;;;;;;;8.13;5.88;;;;;;;11.93;64.04;102549.34;5009177;28;20076;-79
2022/03/14 14:12:22;;;;;;;12.38;7.82;;;;;;;11.95;63.56;102548.31;5009139;28;20026;-76
2022/03/14 14:15:10;;;;;;;11.63;8.13;;;;;;;11.95;63.88;102543.09;4997647;28;20046;-77
2022/03/14 14:17:44;;;;;;;13.88;8.75;;;;;;;11.85;65.11;102549.78;5023159;28;20046;-77
2022/03/14 14:20:10;;;;;;;12.23;8.35;;;;;;;11.78;64.78;102545.00;5009871;28;20231;-76
2022/03/14 14:22:42;;;;;;;12.45;7.72;;;;;;;11.77;64.51;102549.38;5010341;28;20121;-81
2022/03/14 14:25:11;;;;;;;11.70;7.90;;;;;;;11.72;64.88;102547.97;5008853;28;20105;-78
2022/03/14 14:27:50;;;;;;;;;;;;;;;11.90;63.90;102549.50;5010165;28;20022;-79
2022/03/14 14:30:24;;;;;;;11.73;7.63;;;;;;;11.80;64.38;102543.97;5009531;28;19913;-78
2022/03/14 14:32:49;;;;;;;12.75;7.88;;;;;;;11.76;65.26;102541.69;5009657;28;20526;-76
2022/03/14 14:35:15;;;;;;;11.65;8.52;;;;;;;11.78;65.32;102539.81;5000672;28;20121;-77
2022/03/14 14:37:41;;;;;;;12.02;8.98;;;;;;;11.79;65.74;102536.28;5008565;28;20017;-78
2022/03/14 14:40:07;;;;;;;15.43;9.60;;;;;;;11.86;66.13;102537.63;5009373;28;20140;-76
2022/03/14 14:42:32;;;;;;;13.27;9.70;;;;;;;11.91;66.79;102530.38;5006760;28;20036;-76
2022/03/14 14:44:58;;;;;;;12.98;9.43;;;;;;;11.97;66.44;102532.59;5009035;28;20377;-77
2022/03/14 14:47:25;;;;;;;11.73;7.80;;;;;;;11.93;65.32;102533.75;5008498;28;20017;-75
2022/03/14 14:49:51;;;;;;;12.55;8.82;;;;;;;11.99;64.43;102543.78;4988884;28;20052;-78
2022/03/14 14:52:17;;;;;;;14.30;8.45;;;;;;;11.97;65.50;102535.22;4989496;28;20034;-77
2022/03/14 14:54:42;;;;;;;13.60;9.38;;;;;;;12.00;65.51;102529.84;5005314;28;20034;-77
2022/03/14 14:57:08;;;;;;;13.40;9.15;;;;;;;11.98;65.45;102531.69;5009351;28;20381;-78
2022/03/14 14:59:34;;;;;;;12.88;8.45;;;;;;;11.99;65.97;102527.34;4992395;28;20464;-78
2022/03/14 15:01:59;;;;;;;14.73;8.75;;;;;;;11.93;65.50;102526.78;4987157;28;20045;-75
2022/03/14 15:04:25;;;;;;;12.10;9.07;;;;;;;11.92;65.72;102525.06;5004888;28;20168;-75
2022/03/14 15:06:50;;;;;;;13.38;9.40;;;;;;;11.90;65.30;102516.53;5014977;28;20042;-76
2022/03/14 15:09:18;;;;;;;15.45;9.82;;;;;;;11.87;65.15;102519.34;5027975;28;20025;-75
2022/03/14 15:11:44;;;;;;;;;;;;;;;12.05;65.38;102512.19;5028013;28;20392;-76
2022/03/14 15:14:11;;;;;;;15.10;9.70;;;;;;;11.87;65.81;102524.53;5029393;28;19916;-76
2022/03/14 15:16:38;;;;;;;14.40;10.40;;;;;;;11.83;65.64;102517.00;5027525;28;20049;-78
2022/03/14 15:19:03;;;;;;;16.25;11.50;;;;;;;11.87;66.96;102523.69;5027867;28;20030;-75
2022/03/14 15:21:29;;;;;;;14.98;11.68;;;;;;;11.82;66.27;102525.75;5028703;28;20032;-76
2022/03/14 15:23:55;;;;;;;15.77;11.68;;;;;;;11.86;66.75;102528.03;5018568;28;20033;-76
2022/03/14 15:26:21;;;;;;;16.48;11.95;;;;;;;11.82;66.26;102536.16;5047485;28;20021;-76
2022/03/14 15:28:46;;;;;;;17.38;11.75;;;;;;;11.76;66.48;102532.13;5048029;28;20025;-75
2022/03/14 15:31:12;;;;;;;14.27;12.00;;;;;;;11.80;66.47;102530.16;5048234;28;20055;-76
2022/03/14 15:33:39;;;;;;;17.63;11.70;;;;;;;11.80;65.15;102532.75;5044366;28;20583;-76
2022/03/14 15:36:05;;;;;;;13.65;10.35;;;;;;;11.75;65.86;102526.97;5043393;28;20678;-76
2022/03/14 15:38:31;;;;;;;14.88;10.52;;;;;;;11.82;65.57;102528.34;5045330;28;20621;-76
2022/03/14 15:40:59;;;;;;;16.17;10.52;;;;;;;11.79;65.27;102531.09;5030019;28;20037;-76
2022/03/14 15:43:24;;;;;;;14.07;10.70;;;;;;;11.82;65.96;102531.78;5047129;28;20037;-76
2022/03/14 15:45:50;;;;;;;16.80;10.90;;;;;;;11.79;65.83;102531.09;5034729;28;20519;-76
2022/03/14 15:48:16;;;;;;;14.63;11.35;;;;;;;11.77;66.23;102538.16;5030554;28;20139;-76
2022/03/14 15:50:42;;;;;;;18.13;11.90;;;;;;;11.76;65.85;102541.69;5027889;28;20033;-77
2022/03/14 15:53:07;;;;;;;16.73;11.00;;;;;;;11.81;65.79;102544.81;5032792;28;20540;-76
2022/03/14 15:55:32;;;;;;;15.80;10.90;;;;;;;11.82;65.90;102546.53;5030092;28;20357;-76
2022/03/14 15:57:58;;;;;;;17.88;11.55;;;;;;;11.79;66.10;102546.69;5029692;28;20519;-76